sensor_id;sensor_type;location;lat;lon;timestamp;P1;durP1;ratioP1;P2;durP2;ratioP2
70342;SDS011;57767;42.068;24.752;2022-11-20T00:00:36;28.50;;;18.67;;
70342;SDS011;57767;42.068;24.752;2022-11-20T00:01:38;24.88;;;17.83;;
70342;SDS011;57767;42.068;24.752;2022-11-20T00:02:39;27.63;;;18.55;;
70342;SDS011;57767;42.068;24.752;2022-11-20T00:03:41;34.67;;;19.90;;
70342;SDS011;57767;42.068;24.752;2022-11-20T00:04:43;30.90;;;19.90;;
70342;SDS011;57767;42.068;24.752;2022-11-20T00:05:45;28.90;;;19.00;;
70342;SDS011;57767;42.068;24.752;2022-11-20T00:06:47;29.90;;;19.17;;
70342;SDS011;57767;42.068;24.752;2022-11-20T00:07:49;29.05;;;18.60;;
70342;SDS011;57767;42.068;24.752;2022-11-20T00:08:51;28.15;;;18.95;;
70342;SDS011;57767;42.068;24.752;2022-11-20T00:09:55;30.77;;;19.98;;
70342;SDS011;57767;42.068;24.752;2022-11-20T00:10:56;33.58;;;22.48;;
70342;SDS011;57767;42.068;24.752;2022-11-20T00:11:58;35.38;;;20.85;;
70342;SDS011;57767;42.068;24.752;2022-11-20T00:13:00;32.33;;;20.50;;
70342;SDS011;57767;42.068;24.752;2022-11-20T00:14:02;28.25;;;20.10;;
70342;SDS011;57767;42.068;24.752;2022-11-20T00:15:04;27.95;;;20.35;;
70342;SDS011;57767;42.068;24.752;2022-11-20T00:16:06;36.88;;;25.48;;
70342;SDS011;57767;42.068;24.752;2022-11-20T00:17:10;37.75;;;26.08;;
70342;SDS011;57767;42.068;24.752;2022-11-20T00:18:12;35.63;;;26.38;;
70342;SDS011;57767;42.068;24.752;2022-11-20T00:19:13;40.08;;;25.55;;
70342;SDS011;57767;42.068;24.752;2022-11-20T00:20:15;31.92;;;21.55;;
70342;SDS011;57767;42.068;24.752;2022-11-20T00:21:24;33.47;;;20.98;;
70342;SDS011;57767;42.068;24.752;2022-11-20T00:22:27;27.35;;;19.00;;
70342;SDS011;57767;42.068;24.752;2022-11-20T00:23:29;29.42;;;19.38;;
70342;SDS011;57767;42.068;24.752;2022-11-20T00:24:31;32.00;;;21.08;;
70342;SDS011;57767;42.068;24.752;2022-11-20T00:25:35;31.20;;;21.25;;
70342;SDS011;57767;42.068;24.752;2022-11-20T00:26:37;32.00;;;21.25;;
70342;SDS011;57767;42.068;24.752;2022-11-20T00:27:39;30.40;;;20.65;;
70342;SDS011;57767;42.068;24.752;2022-11-20T00:28:41;28.50;;;19.13;;
70342;SDS011;57767;42.068;24.752;2022-11-20T00:29:44;28.05;;;20.92;;
70342;SDS011;57767;42.068;24.752;2022-11-20T00:30:46;37.53;;;26.65;;
70342;SDS011;57767;42.068;24.752;2022-11-20T00:31:48;31.13;;;21.25;;
70342;SDS011;57767;42.068;24.752;2022-11-20T00:32:49;27.63;;;19.50;;
70342;SDS011;57767;42.068;24.752;2022-11-20T00:33:51;23.50;;;18.02;;
70342;SDS011;57767;42.068;24.752;2022-11-20T00:34:53;28.48;;;17.92;;
70342;SDS011;57767;42.068;24.752;2022-11-20T00:35:58;28.10;;;19.58;;
70342;SDS011;57767;42.068;24.752;2022-11-20T00:37:07;30.48;;;20.10;;
70342;SDS011;57767;42.068;24.752;2022-11-20T00:38:09;29.20;;;20.20;;
70342;SDS011;57767;42.068;24.752;2022-11-20T00:39:10;29.00;;;20.80;;
70342;SDS011;57767;42.068;24.752;2022-11-20T00:40:12;27.95;;;19.67;;
70342;SDS011;57767;42.068;24.752;2022-11-20T00:41:15;27.13;;;19.17;;
70342;SDS011;57767;42.068;24.752;2022-11-20T00:42:17;31.83;;;20.02;;
70342;SDS011;57767;42.068;24.752;2022-11-20T00:43:19;28.80;;;18.98;;
70342;SDS011;57767;42.068;24.752;2022-11-20T00:44:20;29.60;;;18.10;;
70342;SDS011;57767;42.068;24.752;2022-11-20T00:45:22;26.67;;;18.40;;
70342;SDS011;57767;42.068;24.752;2022-11-20T00:46:25;26.77;;;18.77;;
70342;SDS011;57767;42.068;24.752;2022-11-20T00:47:28;29.45;;;18.73;;
70342;SDS011;57767;42.068;24.752;2022-11-20T00:48:29;26.67;;;17.08;;
70342;SDS011;57767;42.068;24.752;2022-11-20T00:49:32;22.92;;;17.75;;
70342;SDS011;57767;42.068;24.752;2022-11-20T00:50:33;27.50;;;17.15;;
70342;SDS011;57767;42.068;24.752;2022-11-20T00:51:35;28.67;;;17.42;;
70342;SDS011;57767;42.068;24.752;2022-11-20T00:52:37;30.33;;;16.63;;
70342;SDS011;57767;42.068;24.752;2022-11-20T00:53:38;27.10;;;15.95;;
70342;SDS011;57767;42.068;24.752;2022-11-20T00:54:40;21.13;;;15.80;;
70342;SDS011;57767;42.068;24.752;2022-11-20T00:55:42;25.27;;;16.23;;
70342;SDS011;57767;42.068;24.752;2022-11-20T00:56:43;24.20;;;16.95;;
70342;SDS011;57767;42.068;24.752;2022-11-20T00:57:45;26.33;;;16.45;;
70342;SDS011;57767;42.068;24.752;2022-11-20T00:58:47;23.38;;;15.82;;
70342;SDS011;57767;42.068;24.752;2022-11-20T00:59:50;27.60;;;15.95;;
70342;SDS011;57767;42.068;24.752;2022-11-20T01:00:51;26.05;;;16.05;;
70342;SDS011;57767;42.068;24.752;2022-11-20T01:01:53;25.77;;;14.18;;
70342;SDS011;57767;42.068;24.752;2022-11-20T01:02:55;25.52;;;15.00;;
70342;SDS011;57767;42.068;24.752;2022-11-20T01:03:58;21.88;;;13.93;;
70342;SDS011;57767;42.068;24.752;2022-11-20T01:05:01;31.23;;;14.65;;
70342;SDS011;57767;42.068;24.752;2022-11-20T01:06:03;22.52;;;13.13;;
70342;SDS011;57767;42.068;24.752;2022-11-20T01:07:06;19.83;;;13.50;;
70342;SDS011;57767;42.068;24.752;2022-11-20T01:08:08;23.13;;;13.18;;
70342;SDS011;57767;42.068;24.752;2022-11-20T01:09:11;24.35;;;15.27;;
70342;SDS011;57767;42.068;24.752;2022-11-20T01:10:14;27.55;;;15.65;;
70342;SDS011;57767;42.068;24.752;2022-11-20T01:11:18;27.50;;;16.35;;
70342;SDS011;57767;42.068;24.752;2022-11-20T01:12:21;26.48;;;15.90;;
70342;SDS011;57767;42.068;24.752;2022-11-20T01:13:23;24.00;;;16.38;;
70342;SDS011;57767;42.068;24.752;2022-11-20T01:14:40;26.98;;;15.85;;
70342;SDS011;57767;42.068;24.752;2022-11-20T01:15:42;23.40;;;15.57;;
70342;SDS011;57767;42.068;24.752;2022-11-20T01:16:48;28.35;;;15.88;;
70342;SDS011;57767;42.068;24.752;2022-11-20T01:17:51;27.75;;;16.23;;
70342;SDS011;57767;42.068;24.752;2022-11-20T01:18:53;28.98;;;16.52;;
70342;SDS011;57767;42.068;24.752;2022-11-20T01:19:58;25.58;;;16.27;;
70342;SDS011;57767;42.068;24.752;2022-11-20T01:21:00;24.25;;;15.52;;
70342;SDS011;57767;42.068;24.752;2022-11-20T01:22:07;24.00;;;16.70;;
70342;SDS011;57767;42.068;24.752;2022-11-20T01:23:08;26.55;;;18.25;;
70342;SDS011;57767;42.068;24.752;2022-11-20T01:24:11;26.60;;;17.88;;
70342;SDS011;57767;42.068;24.752;2022-11-20T01:25:15;24.33;;;16.38;;
70342;SDS011;57767;42.068;24.752;2022-11-20T01:26:21;23.95;;;17.30;;
70342;SDS011;57767;42.068;24.752;2022-11-20T01:27:24;26.00;;;18.10;;
70342;SDS011;57767;42.068;24.752;2022-11-20T01:28:26;25.40;;;17.08;;
70342;SDS011;57767;42.068;24.752;2022-11-20T01:29:29;31.73;;;16.88;;
70342;SDS011;57767;42.068;24.752;2022-11-20T01:30:31;28.35;;;17.85;;
70342;SDS011;57767;42.068;24.752;2022-11-20T01:31:34;27.52;;;17.45;;
70342;SDS011;57767;42.068;24.752;2022-11-20T01:32:37;24.00;;;17.88;;
70342;SDS011;57767;42.068;24.752;2022-11-20T01:33:39;24.00;;;16.65;;
70342;SDS011;57767;42.068;24.752;2022-11-20T01:34:42;26.42;;;17.23;;
70342;SDS011;57767;42.068;24.752;2022-11-20T01:35:43;28.83;;;16.85;;
70342;SDS011;57767;42.068;24.752;2022-11-20T01:36:45;26.48;;;17.80;;
70342;SDS011;57767;42.068;24.752;2022-11-20T01:37:47;23.70;;;17.75;;
70342;SDS011;57767;42.068;24.752;2022-11-20T01:38:59;27.52;;;17.20;;
70342;SDS011;57767;42.068;24.752;2022-11-20T01:40:02;26.17;;;17.05;;
70342;SDS011;57767;42.068;24.752;2022-11-20T01:41:05;23.73;;;14.38;;
70342;SDS011;57767;42.068;24.752;2022-11-20T01:42:07;20.80;;;13.45;;
70342;SDS011;57767;42.068;24.752;2022-11-20T01:43:38;14.02;;;9.23;;
70342;SDS011;57767;42.068;24.752;2022-11-20T01:46:05;19.58;;;9.75;;
70342;SDS011;57767;42.068;24.752;2022-11-20T01:47:51;17.17;;;11.18;;
70342;SDS011;57767;42.068;24.752;2022-11-20T01:48:52;16.88;;;9.95;;
70342;SDS011;57767;42.068;24.752;2022-11-20T01:50:01;14.70;;;9.30;;
70342;SDS011;57767;42.068;24.752;2022-11-20T01:51:10;10.40;;;6.88;;
70342;SDS011;57767;42.068;24.752;2022-11-20T01:52:25;9.55;;;6.28;;
70342;SDS011;57767;42.068;24.752;2022-11-20T01:53:37;11.90;;;6.55;;
70342;SDS011;57767;42.068;24.752;2022-11-20T01:54:45;21.15;;;7.85;;
70342;SDS011;57767;42.068;24.752;2022-11-20T01:55:54;15.40;;;9.32;;
70342;SDS011;57767;42.068;24.752;2022-11-20T01:56:58;16.80;;;10.05;;
70342;SDS011;57767;42.068;24.752;2022-11-20T01:58:01;13.57;;;8.00;;
70342;SDS011;57767;42.068;24.752;2022-11-20T01:59:04;14.32;;;7.57;;
70342;SDS011;57767;42.068;24.752;2022-11-20T02:00:10;12.27;;;7.63;;
70342;SDS011;57767;42.068;24.752;2022-11-20T02:01:14;14.50;;;7.85;;
70342;SDS011;57767;42.068;24.752;2022-11-20T02:02:16;7.80;;;6.15;;
70342;SDS011;57767;42.068;24.752;2022-11-20T02:03:19;9.30;;;5.63;;
70342;SDS011;57767;42.068;24.752;2022-11-20T02:04:21;7.80;;;4.50;;
70342;SDS011;57767;42.068;24.752;2022-11-20T02:05:28;8.18;;;4.22;;
70342;SDS011;57767;42.068;24.752;2022-11-20T02:06:43;9.90;;;4.15;;
70342;SDS011;57767;42.068;24.752;2022-11-20T02:07:49;7.70;;;3.72;;
70342;SDS011;57767;42.068;24.752;2022-11-20T02:08:52;5.75;;;3.30;;
70342;SDS011;57767;42.068;24.752;2022-11-20T02:09:54;7.07;;;3.60;;
70342;SDS011;57767;42.068;24.752;2022-11-20T02:10:59;6.15;;;2.83;;
70342;SDS011;57767;42.068;24.752;2022-11-20T02:12:00;5.47;;;3.30;;
70342;SDS011;57767;42.068;24.752;2022-11-20T02:13:03;6.35;;;3.10;;
70342;SDS011;57767;42.068;24.752;2022-11-20T02:14:24;8.15;;;2.40;;
70342;SDS011;57767;42.068;24.752;2022-11-20T02:15:27;11.52;;;4.95;;
70342;SDS011;57767;42.068;24.752;2022-11-20T02:16:32;11.80;;;5.03;;
70342;SDS011;57767;42.068;24.752;2022-11-20T02:17:37;8.70;;;5.55;;
70342;SDS011;57767;42.068;24.752;2022-11-20T02:18:39;8.13;;;3.88;;
70342;SDS011;57767;42.068;24.752;2022-11-20T02:19:42;12.02;;;4.63;;
70342;SDS011;57767;42.068;24.752;2022-11-20T02:20:45;4.88;;;4.03;;
70342;SDS011;57767;42.068;24.752;2022-11-20T02:22:59;9.73;;;3.63;;
70342;SDS011;57767;42.068;24.752;2022-11-20T02:24:07;6.45;;;3.05;;
70342;SDS011;57767;42.068;24.752;2022-11-20T02:25:10;5.18;;;3.05;;
70342;SDS011;57767;42.068;24.752;2022-11-20T02:26:12;7.53;;;3.10;;
70342;SDS011;57767;42.068;24.752;2022-11-20T02:27:17;5.85;;;3.30;;
70342;SDS011;57767;42.068;24.752;2022-11-20T02:28:19;4.85;;;3.00;;
70342;SDS011;57767;42.068;24.752;2022-11-20T02:30:53;8.98;;;3.53;;
70342;SDS011;57767;42.068;24.752;2022-11-20T02:31:55;6.05;;;2.85;;
70342;SDS011;57767;42.068;24.752;2022-11-20T02:32:59;5.82;;;2.60;;
70342;SDS011;57767;42.068;24.752;2022-11-20T02:34:00;5.72;;;2.85;;
70342;SDS011;57767;42.068;24.752;2022-11-20T02:35:45;6.30;;;3.05;;
70342;SDS011;57767;42.068;24.752;2022-11-20T02:36:27;6.25;;;3.03;;
70342;SDS011;57767;42.068;24.752;2022-11-20T02:37:32;7.93;;;3.05;;
70342;SDS011;57767;42.068;24.752;2022-11-20T02:38:38;5.93;;;2.47;;
70342;SDS011;57767;42.068;24.752;2022-11-20T02:39:39;7.38;;;2.63;;
70342;SDS011;57767;42.068;24.752;2022-11-20T02:40:42;6.88;;;2.92;;
70342;SDS011;57767;42.068;24.752;2022-11-20T02:41:44;3.20;;;2.10;;
70342;SDS011;57767;42.068;24.752;2022-11-20T02:42:46;5.05;;;2.83;;
70342;SDS011;57767;42.068;24.752;2022-11-20T02:43:48;6.80;;;2.70;;
70342;SDS011;57767;42.068;24.752;2022-11-20T02:44:49;5.72;;;2.60;;
70342;SDS011;57767;42.068;24.752;2022-11-20T02:45:51;5.55;;;2.35;;
70342;SDS011;57767;42.068;24.752;2022-11-20T02:46:53;5.65;;;2.30;;
70342;SDS011;57767;42.068;24.752;2022-11-20T02:47:58;4.57;;;2.28;;
70342;SDS011;57767;42.068;24.752;2022-11-20T02:49:03;7.00;;;2.22;;
70342;SDS011;57767;42.068;24.752;2022-11-20T02:50:05;5.68;;;2.45;;
70342;SDS011;57767;42.068;24.752;2022-11-20T02:51:07;5.85;;;2.03;;
70342;SDS011;57767;42.068;24.752;2022-11-20T02:52:09;4.20;;;1.67;;
70342;SDS011;57767;42.068;24.752;2022-11-20T02:53:11;6.30;;;2.10;;
70342;SDS011;57767;42.068;24.752;2022-11-20T02:54:12;7.18;;;2.17;;
70342;SDS011;57767;42.068;24.752;2022-11-20T02:55:14;5.20;;;1.90;;
70342;SDS011;57767;42.068;24.752;2022-11-20T02:56:16;4.07;;;1.60;;
70342;SDS011;57767;42.068;24.752;2022-11-20T02:57:18;3.05;;;2.13;;
70342;SDS011;57767;42.068;24.752;2022-11-20T02:58:19;3.55;;;1.80;;
70342;SDS011;57767;42.068;24.752;2022-11-20T02:59:21;7.88;;;2.10;;
70342;SDS011;57767;42.068;24.752;2022-11-20T03:00:23;4.75;;;1.55;;
70342;SDS011;57767;42.068;24.752;2022-11-20T03:01:25;4.00;;;1.95;;
70342;SDS011;57767;42.068;24.752;2022-11-20T03:02:30;8.52;;;2.20;;
70342;SDS011;57767;42.068;24.752;2022-11-20T03:03:32;7.70;;;2.05;;
70342;SDS011;57767;42.068;24.752;2022-11-20T03:04:34;3.92;;;1.52;;
70342;SDS011;57767;42.068;24.752;2022-11-20T03:05:36;4.85;;;2.05;;
70342;SDS011;57767;42.068;24.752;2022-11-20T03:06:38;5.50;;;1.98;;
70342;SDS011;57767;42.068;24.752;2022-11-20T03:07:39;3.45;;;2.00;;
70342;SDS011;57767;42.068;24.752;2022-11-20T03:08:41;7.70;;;1.77;;
70342;SDS011;57767;42.068;24.752;2022-11-20T03:09:43;5.22;;;2.00;;
70342;SDS011;57767;42.068;24.752;2022-11-20T03:10:45;8.43;;;2.40;;
70342;SDS011;57767;42.068;24.752;2022-11-20T03:11:47;6.95;;;1.63;;
70342;SDS011;57767;42.068;24.752;2022-11-20T03:12:52;4.75;;;2.10;;
70342;SDS011;57767;42.068;24.752;2022-11-20T03:13:56;4.68;;;1.83;;
70342;SDS011;57767;42.068;24.752;2022-11-20T03:14:58;5.63;;;2.00;;
70342;SDS011;57767;42.068;24.752;2022-11-20T03:16:10;4.80;;;2.08;;
70342;SDS011;57767;42.068;24.752;2022-11-20T03:17:16;4.82;;;1.85;;
70342;SDS011;57767;42.068;24.752;2022-11-20T03:18:18;3.28;;;1.70;;
70342;SDS011;57767;42.068;24.752;2022-11-20T03:19:20;2.65;;;1.80;;
70342;SDS011;57767;42.068;24.752;2022-11-20T03:20:22;5.70;;;1.98;;
70342;SDS011;57767;42.068;24.752;2022-11-20T03:21:24;6.10;;;2.25;;
70342;SDS011;57767;42.068;24.752;2022-11-20T03:22:28;4.82;;;2.40;;
70342;SDS011;57767;42.068;24.752;2022-11-20T03:23:31;5.60;;;2.33;;
70342;SDS011;57767;42.068;24.752;2022-11-20T03:24:33;3.25;;;1.98;;
70342;SDS011;57767;42.068;24.752;2022-11-20T03:25:35;4.03;;;2.40;;
70342;SDS011;57767;42.068;24.752;2022-11-20T03:26:37;5.00;;;2.35;;
70342;SDS011;57767;42.068;24.752;2022-11-20T03:27:40;7.07;;;2.47;;
70342;SDS011;57767;42.068;24.752;2022-11-20T03:28:45;5.38;;;2.08;;
70342;SDS011;57767;42.068;24.752;2022-11-20T03:29:48;3.50;;;1.65;;
70342;SDS011;57767;42.068;24.752;2022-11-20T03:30:50;5.63;;;2.13;;
70342;SDS011;57767;42.068;24.752;2022-11-20T03:31:51;5.22;;;2.50;;
70342;SDS011;57767;42.068;24.752;2022-11-20T03:32:53;7.95;;;2.40;;
70342;SDS011;57767;42.068;24.752;2022-11-20T03:33:56;12.10;;;3.90;;
70342;SDS011;57767;42.068;24.752;2022-11-20T03:34:59;6.63;;;3.08;;
70342;SDS011;57767;42.068;24.752;2022-11-20T03:36:01;5.82;;;2.83;;
70342;SDS011;57767;42.068;24.752;2022-11-20T03:37:08;7.05;;;3.30;;
70342;SDS011;57767;42.068;24.752;2022-11-20T03:38:09;8.85;;;4.78;;
70342;SDS011;57767;42.068;24.752;2022-11-20T03:39:11;12.52;;;5.40;;
70342;SDS011;57767;42.068;24.752;2022-11-20T03:40:13;9.25;;;5.28;;
70342;SDS011;57767;42.068;24.752;2022-11-20T03:41:18;13.38;;;7.40;;
70342;SDS011;57767;42.068;24.752;2022-11-20T03:42:22;13.20;;;8.27;;
70342;SDS011;57767;42.068;24.752;2022-11-20T03:43:46;9.25;;;7.22;;
70342;SDS011;57767;42.068;24.752;2022-11-20T03:44:48;11.40;;;7.95;;
70342;SDS011;57767;42.068;24.752;2022-11-20T03:45:50;15.88;;;7.80;;
70342;SDS011;57767;42.068;24.752;2022-11-20T03:46:52;10.60;;;7.50;;
70342;SDS011;57767;42.068;24.752;2022-11-20T03:47:53;13.15;;;7.53;;
70342;SDS011;57767;42.068;24.752;2022-11-20T03:48:55;12.93;;;7.80;;
70342;SDS011;57767;42.068;24.752;2022-11-20T03:49:57;15.25;;;7.57;;
70342;SDS011;57767;42.068;24.752;2022-11-20T03:52:17;15.77;;;8.23;;
70342;SDS011;57767;42.068;24.752;2022-11-20T03:53:19;16.00;;;8.63;;
70342;SDS011;57767;42.068;24.752;2022-11-20T03:54:21;16.42;;;9.98;;
70342;SDS011;57767;42.068;24.752;2022-11-20T03:55:23;14.68;;;10.38;;
70342;SDS011;57767;42.068;24.752;2022-11-20T03:56:25;20.88;;;11.40;;
70342;SDS011;57767;42.068;24.752;2022-11-20T03:57:29;19.35;;;11.13;;
70342;SDS011;57767;42.068;24.752;2022-11-20T03:58:30;16.40;;;11.40;;
70342;SDS011;57767;42.068;24.752;2022-11-20T03:59:34;21.58;;;11.77;;
70342;SDS011;57767;42.068;24.752;2022-11-20T04:00:36;18.00;;;11.75;;
70342;SDS011;57767;42.068;24.752;2022-11-20T04:01:37;24.15;;;14.85;;
70342;SDS011;57767;42.068;24.752;2022-11-20T04:02:39;30.50;;;17.08;;
70342;SDS011;57767;42.068;24.752;2022-11-20T04:03:41;27.02;;;16.55;;
70342;SDS011;57767;42.068;24.752;2022-11-20T04:04:44;27.00;;;15.82;;
70342;SDS011;57767;42.068;24.752;2022-11-20T04:05:46;25.55;;;15.40;;
70342;SDS011;57767;42.068;24.752;2022-11-20T04:06:47;24.67;;;16.08;;
70342;SDS011;57767;42.068;24.752;2022-11-20T04:07:49;22.38;;;15.93;;
70342;SDS011;57767;42.068;24.752;2022-11-20T04:08:51;26.83;;;15.85;;
70342;SDS011;57767;42.068;24.752;2022-11-20T04:09:55;25.05;;;16.90;;
70342;SDS011;57767;42.068;24.752;2022-11-20T04:11:07;24.30;;;16.80;;
70342;SDS011;57767;42.068;24.752;2022-11-20T04:12:16;22.15;;;16.55;;
70342;SDS011;57767;42.068;24.752;2022-11-20T04:13:18;25.08;;;17.85;;
70342;SDS011;57767;42.068;24.752;2022-11-20T04:14:19;23.52;;;15.23;;
70342;SDS011;57767;42.068;24.752;2022-11-20T04:15:21;24.95;;;16.63;;
70342;SDS011;57767;42.068;24.752;2022-11-20T04:16:23;25.60;;;15.82;;
70342;SDS011;57767;42.068;24.752;2022-11-20T04:17:26;26.65;;;17.33;;
70342;SDS011;57767;42.068;24.752;2022-11-20T04:18:28;25.20;;;17.48;;
70342;SDS011;57767;42.068;24.752;2022-11-20T04:19:30;24.23;;;18.08;;
70342;SDS011;57767;42.068;24.752;2022-11-20T04:20:31;26.27;;;15.90;;
70342;SDS011;57767;42.068;24.752;2022-11-20T04:21:33;22.27;;;16.75;;
70342;SDS011;57767;42.068;24.752;2022-11-20T04:22:35;26.75;;;17.00;;
70342;SDS011;57767;42.068;24.752;2022-11-20T04:23:36;23.35;;;16.30;;
70342;SDS011;57767;42.068;24.752;2022-11-20T04:24:38;27.75;;;18.98;;
70342;SDS011;57767;42.068;24.752;2022-11-20T04:25:40;27.27;;;19.35;;
70342;SDS011;57767;42.068;24.752;2022-11-20T04:26:41;29.10;;;21.17;;
70342;SDS011;57767;42.068;24.752;2022-11-20T04:27:43;26.80;;;19.23;;
70342;SDS011;57767;42.068;24.752;2022-11-20T04:28:45;30.27;;;20.17;;
70342;SDS011;57767;42.068;24.752;2022-11-20T04:29:46;26.58;;;18.33;;
70342;SDS011;57767;42.068;24.752;2022-11-20T04:30:48;26.05;;;16.42;;
70342;SDS011;57767;42.068;24.752;2022-11-20T04:31:50;24.85;;;15.20;;
70342;SDS011;57767;42.068;24.752;2022-11-20T04:32:51;24.17;;;14.75;;
70342;SDS011;57767;42.068;24.752;2022-11-20T04:33:53;24.95;;;15.65;;
70342;SDS011;57767;42.068;24.752;2022-11-20T04:34:55;25.20;;;15.10;;
70342;SDS011;57767;42.068;24.752;2022-11-20T04:36:04;26.17;;;14.65;;
70342;SDS011;57767;42.068;24.752;2022-11-20T04:37:13;24.73;;;15.02;;
70342;SDS011;57767;42.068;24.752;2022-11-20T04:38:15;25.23;;;16.98;;
70342;SDS011;57767;42.068;24.752;2022-11-20T04:39:17;24.02;;;15.43;;
70342;SDS011;57767;42.068;24.752;2022-11-20T04:40:19;23.90;;;15.93;;
70342;SDS011;57767;42.068;24.752;2022-11-20T04:41:21;25.38;;;16.20;;
70342;SDS011;57767;42.068;24.752;2022-11-20T04:42:23;28.00;;;16.83;;
70342;SDS011;57767;42.068;24.752;2022-11-20T04:43:31;26.25;;;15.90;;
70342;SDS011;57767;42.068;24.752;2022-11-20T04:44:34;22.10;;;15.30;;
70342;SDS011;57767;42.068;24.752;2022-11-20T04:45:35;25.75;;;15.68;;
70342;SDS011;57767;42.068;24.752;2022-11-20T04:46:38;24.00;;;15.23;;
70342;SDS011;57767;42.068;24.752;2022-11-20T04:47:41;23.15;;;15.93;;
70342;SDS011;57767;42.068;24.752;2022-11-20T04:48:43;28.15;;;14.23;;
70342;SDS011;57767;42.068;24.752;2022-11-20T04:49:45;26.38;;;14.43;;
70342;SDS011;57767;42.068;24.752;2022-11-20T04:50:47;19.55;;;14.15;;
70342;SDS011;57767;42.068;24.752;2022-11-20T04:51:48;22.38;;;13.85;;
70342;SDS011;57767;42.068;24.752;2022-11-20T04:52:50;28.15;;;14.63;;
70342;SDS011;57767;42.068;24.752;2022-11-20T04:53:52;23.50;;;14.13;;
70342;SDS011;57767;42.068;24.752;2022-11-20T04:54:54;20.85;;;14.25;;
70342;SDS011;57767;42.068;24.752;2022-11-20T04:56:00;19.00;;;13.32;;
70342;SDS011;57767;42.068;24.752;2022-11-20T04:57:02;20.25;;;14.00;;
70342;SDS011;57767;42.068;24.752;2022-11-20T04:58:04;21.42;;;14.15;;
70342;SDS011;57767;42.068;24.752;2022-11-20T04:59:06;19.60;;;14.23;;
70342;SDS011;57767;42.068;24.752;2022-11-20T05:00:08;21.77;;;14.18;;
70342;SDS011;57767;42.068;24.752;2022-11-20T05:01:14;22.42;;;15.00;;
70342;SDS011;57767;42.068;24.752;2022-11-20T05:02:17;26.00;;;14.80;;
70342;SDS011;57767;42.068;24.752;2022-11-20T05:03:19;24.52;;;14.75;;
70342;SDS011;57767;42.068;24.752;2022-11-20T05:04:21;22.88;;;14.90;;
70342;SDS011;57767;42.068;24.752;2022-11-20T05:05:23;26.40;;;15.00;;
70342;SDS011;57767;42.068;24.752;2022-11-20T05:06:24;24.83;;;16.08;;
70342;SDS011;57767;42.068;24.752;2022-11-20T05:07:26;26.98;;;16.17;;
70342;SDS011;57767;42.068;24.752;2022-11-20T05:08:28;21.95;;;15.00;;
70342;SDS011;57767;42.068;24.752;2022-11-20T05:09:31;25.70;;;15.70;;
70342;SDS011;57767;42.068;24.752;2022-11-20T05:10:33;35.90;;;23.02;;
70342;SDS011;57767;42.068;24.752;2022-11-20T05:11:34;33.38;;;21.35;;
70342;SDS011;57767;42.068;24.752;2022-11-20T05:12:36;26.80;;;17.55;;
70342;SDS011;57767;42.068;24.752;2022-11-20T05:13:38;25.38;;;18.13;;
70342;SDS011;57767;42.068;24.752;2022-11-20T05:14:40;30.40;;;19.10;;
70342;SDS011;57767;42.068;24.752;2022-11-20T05:15:41;26.10;;;16.80;;
70342;SDS011;57767;42.068;24.752;2022-11-20T05:16:43;28.98;;;15.90;;
70342;SDS011;57767;42.068;24.752;2022-11-20T05:17:48;25.08;;;17.75;;
70342;SDS011;57767;42.068;24.752;2022-11-20T05:18:52;29.52;;;18.75;;
70342;SDS011;57767;42.068;24.752;2022-11-20T05:19:55;26.23;;;17.98;;
70342;SDS011;57767;42.068;24.752;2022-11-20T05:20:57;26.08;;;17.63;;
70342;SDS011;57767;42.068;24.752;2022-11-20T05:21:59;23.58;;;15.95;;
70342;SDS011;57767;42.068;24.752;2022-11-20T05:23:00;29.25;;;16.45;;
70342;SDS011;57767;42.068;24.752;2022-11-20T05:24:02;22.10;;;13.23;;
70342;SDS011;57767;42.068;24.752;2022-11-20T05:25:04;23.48;;;12.65;;
70342;SDS011;57767;42.068;24.752;2022-11-20T05:26:07;22.55;;;14.23;;
70342;SDS011;57767;42.068;24.752;2022-11-20T05:27:13;20.02;;;13.98;;
70342;SDS011;57767;42.068;24.752;2022-11-20T05:28:14;21.88;;;12.57;;
70342;SDS011;57767;42.068;24.752;2022-11-20T05:29:16;17.05;;;11.75;;
70342;SDS011;57767;42.068;24.752;2022-11-20T05:30:18;20.20;;;11.40;;
70342;SDS011;57767;42.068;24.752;2022-11-20T05:31:21;15.63;;;11.13;;
70342;SDS011;57767;42.068;24.752;2022-11-20T05:32:28;14.88;;;10.70;;
70342;SDS011;57767;42.068;24.752;2022-11-20T05:33:30;17.65;;;10.77;;
70342;SDS011;57767;42.068;24.752;2022-11-20T05:34:31;15.95;;;9.05;;
70342;SDS011;57767;42.068;24.752;2022-11-20T05:35:33;11.40;;;7.20;;
70342;SDS011;57767;42.068;24.752;2022-11-20T05:36:35;10.88;;;4.85;;
70342;SDS011;57767;42.068;24.752;2022-11-20T05:37:36;12.32;;;4.80;;
70342;SDS011;57767;42.068;24.752;2022-11-20T05:38:38;8.20;;;4.53;;
70342;SDS011;57767;42.068;24.752;2022-11-20T05:39:41;8.80;;;4.25;;
70342;SDS011;57767;42.068;24.752;2022-11-20T05:40:42;12.75;;;6.18;;
70342;SDS011;57767;42.068;24.752;2022-11-20T05:41:44;9.55;;;6.45;;
70342;SDS011;57767;42.068;24.752;2022-11-20T05:42:46;15.55;;;6.40;;
70342;SDS011;57767;42.068;24.752;2022-11-20T05:43:48;15.00;;;6.38;;
70342;SDS011;57767;42.068;24.752;2022-11-20T05:44:51;19.00;;;6.85;;
70342;SDS011;57767;42.068;24.752;2022-11-20T05:45:53;13.30;;;5.90;;
70342;SDS011;57767;42.068;24.752;2022-11-20T05:46:55;9.98;;;5.82;;
70342;SDS011;57767;42.068;24.752;2022-11-20T05:47:57;16.58;;;6.28;;
70342;SDS011;57767;42.068;24.752;2022-11-20T05:49:01;12.10;;;5.90;;
70342;SDS011;57767;42.068;24.752;2022-11-20T05:50:03;11.02;;;6.15;;
70342;SDS011;57767;42.068;24.752;2022-11-20T05:51:06;10.00;;;6.70;;
70342;SDS011;57767;42.068;24.752;2022-11-20T05:52:09;11.80;;;6.78;;
70342;SDS011;57767;42.068;24.752;2022-11-20T05:53:10;12.20;;;6.32;;
70342;SDS011;57767;42.068;24.752;2022-11-20T05:54:12;10.40;;;6.07;;
70342;SDS011;57767;42.068;24.752;2022-11-20T05:55:14;10.88;;;6.47;;
70342;SDS011;57767;42.068;24.752;2022-11-20T05:56:17;13.70;;;6.07;;
70342;SDS011;57767;42.068;24.752;2022-11-20T05:57:20;13.93;;;6.72;;
70342;SDS011;57767;42.068;24.752;2022-11-20T05:58:22;9.77;;;6.32;;
70342;SDS011;57767;42.068;24.752;2022-11-20T05:59:23;10.00;;;6.10;;
70342;SDS011;57767;42.068;24.752;2022-11-20T06:00:25;11.75;;;6.75;;
70342;SDS011;57767;42.068;24.752;2022-11-20T06:01:27;12.73;;;7.03;;
70342;SDS011;57767;42.068;24.752;2022-11-20T06:02:28;15.23;;;7.05;;
70342;SDS011;57767;42.068;24.752;2022-11-20T06:03:30;16.20;;;6.95;;
70342;SDS011;57767;42.068;24.752;2022-11-20T06:04:32;14.25;;;5.45;;
70342;SDS011;57767;42.068;24.752;2022-11-20T06:05:34;10.07;;;5.70;;
70342;SDS011;57767;42.068;24.752;2022-11-20T06:06:35;13.23;;;5.93;;
70342;SDS011;57767;42.068;24.752;2022-11-20T06:07:37;11.43;;;5.95;;
70342;SDS011;57767;42.068;24.752;2022-11-20T06:08:39;9.32;;;5.30;;
70342;SDS011;57767;42.068;24.752;2022-11-20T06:09:41;7.13;;;5.15;;
70342;SDS011;57767;42.068;24.752;2022-11-20T06:10:42;8.65;;;5.70;;
70342;SDS011;57767;42.068;24.752;2022-11-20T06:11:44;12.80;;;5.00;;
70342;SDS011;57767;42.068;24.752;2022-11-20T06:12:46;13.20;;;5.55;;
70342;SDS011;57767;42.068;24.752;2022-11-20T06:13:47;9.20;;;5.00;;